Time;durP1;ratioP1;P1;durP2;ratioP2;P2;SDS_P1;SDS_P2;PMS_P1;PMS_P2;Temp;Humidity;BMP_temperature;BMP_pressure;BME280_temperature;BME280_humidity;BME280_pressure;Samples;Min_cycle;Max_cycle;Signal;HPM_P1;HPM_P2
2024/02/29 00:00:06;;;;;;;52.30;31.80;;;5.70;99.90;;;;;;5066110;28;21614;-71
2024/02/29 00:02:32;;;;;;;47.47;31.47;;;5.70;99.90;;;;;;5065878;28;20505;-70
2024/02/29 00:04:58;;;;;;;46.27;30.67;;;5.60;99.90;;;;;;5065528;28;20436;-70
2024/02/29 00:07:23;;;;;;;48.87;32.97;;;5.60;99.90;;;;;;5047837;28;20559;-70
2024/02/29 00:09:49;;;;;;;56.07;36.03;;;5.60;99.90;;;;;;5065866;28;20255;-69
2024/02/29 00:12:14;;;;;;;50.97;30.67;;;5.50;99.90;;;;;;5065803;28;20198;-70
2024/02/29 00:14:42;;;;;;;51.77;34.13;;;5.50;99.90;;;;;;5048626;28;20672;-70
2024/02/29 00:17:08;;;;;;;46.30;30.33;;;5.50;99.90;;;;;;5065899;28;20983;-70
2024/02/29 00:19:33;;;;;;;52.20;33.83;;;5.50;99.90;;;;;;5065769;28;20447;-71
2024/02/29 00:21:59;;;;;;;44.87;31.37;;;5.40;99.90;;;;;;5065809;28;20185;-71
2024/02/29 00:24:25;;;;;;;41.93;29.03;;;5.30;99.90;;;;;;5065670;28;20715;-69
2024/02/29 00:26:50;;;;;;;48.47;33.13;;;5.30;99.90;;;;;;5065439;28;20182;-69
2024/02/29 00:29:16;;;;;;;42.80;29.60;;;5.30;99.90;;;;;;5065473;28;20661;-70
2024/02/29 00:31:43;;;;;;;44.33;31.30;;;5.30;99.90;;;;;;5065638;28;20175;-70
2024/02/29 00:34:10;;;;;;;46.23;30.67;;;5.40;99.90;;;;;;5065609;28;20224;-71
2024/02/29 00:36:35;;;;;;;40.60;28.43;;;5.40;99.90;;;;;;5065730;28;20449;-71
2024/02/29 00:39:01;;;;;;;47.73;32.20;;;5.40;99.90;;;;;;5065110;28;21000;-69
2024/02/29 00:41:27;;;;;;;47.10;30.90;;;5.40;99.90;;;;;;5065717;28;20182;-71
2024/02/29 00:43:52;;;;;;;46.90;31.47;;;5.40;99.90;;;;;;5065256;28;20782;-69
2024/02/29 00:46:18;;;;;;;47.40;33.20;;;5.30;99.90;;;;;;5065328;28;20604;-69
2024/02/29 00:48:43;;;;;;;50.10;32.60;;;5.30;99.90;;;;;;5065207;28;20186;-70
2024/02/29 00:51:09;;;;;;;46.33;32.53;;;5.20;99.90;;;;;;5065212;28;20181;-69
2024/02/29 00:53:35;;;;;;;52.57;32.57;;;5.20;99.90;;;;;;5064709;28;20209;-69
2024/02/29 00:56:00;;;;;;;50.97;33.57;;;5.10;99.90;;;;;;5065238;28;20210;-69
2024/02/29 00:58:26;;;;;;;54.60;31.87;;;5.00;99.90;;;;;;5065437;28;20547;-69
2024/02/29 01:00:51;;;;;;;57.17;34.13;;;5.00;99.90;;;;;;5065718;28;20652;-70
2024/02/29 01:03:17;;;;;;;53.40;33.83;;;5.10;99.90;;;;;;5065029;28;20185;-70
2024/02/29 01:05:42;;;;;;;52.63;33.23;;;5.20;99.90;;;;;;5046738;28;20263;-70
2024/02/29 01:08:08;;;;;;;51.03;32.73;;;5.20;99.90;;;;;;5064909;28;20200;-70
2024/02/29 01:10:34;;;;;;;47.20;31.10;;;5.10;99.90;;;;;;5065069;28;20177;-69
2024/02/29 01:12:59;;;;;;;51.80;33.33;;;5.10;99.90;;;;;;5065261;28;20201;-69
2024/02/29 01:15:25;;;;;;;46.63;30.97;;;5.00;99.90;;;;;;5064289;28;20674;-70
2024/02/29 01:17:50;;;;;;;52.53;33.77;;;5.00;99.90;;;;;;5065221;28;20182;-70
2024/02/29 01:20:16;;;;;;;47.60;31.07;;;5.00;99.90;;;;;;5064953;28;20520;-70
2024/02/29 01:22:42;;;;;;;56.80;34.00;;;5.00;99.90;;;;;;5065510;28;20178;-69
2024/02/29 01:25:08;;;;;;;50.50;33.73;;;4.90;99.90;;;;;;5064806;28;20202;-70
2024/02/29 01:27:34;;;;;;;52.47;33.40;;;5.00;99.90;;;;;;5064882;28;20178;-70
2024/02/29 01:29:59;;;;;;;51.00;33.30;;;5.00;99.90;;;;;;5065549;28;20789;-70
2024/02/29 01:32:25;;;;;;;50.30;33.53;;;5.10;99.90;;;;;;5065725;28;20586;-71
2024/02/29 01:34:50;;;;;;;54.53;32.97;;;5.10;99.90;;;;;;5064630;28;20370;-70
2024/02/29 01:37:16;;;;;;;53.07;33.97;;;5.10;99.90;;;;;;5064882;28;20216;-69
2024/02/29 01:39:42;;;;;;;59.23;36.90;;;5.10;99.90;;;;;;5064909;28;20261;-71
2024/02/29 01:42:08;;;;;;;51.53;34.00;;;5.00;99.90;;;;;;5066158;28;20774;-70
2024/02/29 01:44:39;;;;;;;54.53;35.77;;;5.00;99.90;;;;;;5065570;28;20576;-68
2024/02/29 01:47:06;;;;;;;52.13;35.13;;;4.90;99.90;;;;;;5066285;28;20227;-70
2024/02/29 01:49:34;;;;;;;57.43;35.53;;;4.90;99.90;;;;;;5065305;28;21082;-72
2024/02/29 01:52:00;;;;;;;52.80;33.90;;;4.90;99.90;;;;;;5064954;28;20490;-71
2024/02/29 01:54:25;;;;;;;45.77;31.70;;;4.90;99.90;;;;;;5064458;28;20432;-70
2024/02/29 01:56:51;;;;;;;53.17;35.47;;;4.90;99.90;;;;;;5064302;28;20186;-68
2024/02/29 01:59:17;;;;;;;52.53;33.63;;;4.90;99.90;;;;;;5063658;28;20400;-71
2024/02/29 02:01:43;;;;;;;49.87;33.30;;;4.90;99.90;;;;;;5063727;28;20173;-69
2024/02/29 02:04:09;;;;;;;48.70;33.67;;;4.80;99.90;;;;;;5064026;28;21734;-70
2024/02/29 02:06:35;;;;;;;49.30;33.90;;;4.80;99.90;;;;;;5063806;28;20533;-70
2024/02/29 02:09:01;;;;;;;44.93;29.67;;;4.80;99.90;;;;;;5064037;28;20777;-69
2024/02/29 02:11:27;;;;;;;49.03;31.57;;;4.80;99.90;;;;;;5063925;28;20408;-69
2024/02/29 02:13:53;;;;;;;56.03;34.30;;;4.90;99.90;;;;;;5063622;28;20461;-70
2024/02/29 02:16:19;;;;;;;59.53;37.87;;;4.80;99.90;;;;;;5064210;28;20185;-69
2024/02/29 02:18:44;;;;;;;54.40;35.40;;;4.70;99.90;;;;;;5063615;28;20415;-70
2024/02/29 02:21:10;;;;;;;47.70;32.43;;;4.60;99.90;;;;;;5063605;28;20476;-70
2024/02/29 02:23:35;;;;;;;45.57;32.27;;;4.70;99.90;;;;;;5045523;28;20189;-69
2024/02/29 02:26:01;;;;;;;54.60;37.90;;;4.70;99.90;;;;;;5062667;28;20555;-69
2024/02/29 02:28:27;;;;;;;52.40;34.30;;;4.70;99.90;;;;;;5063766;28;20221;-71
2024/02/29 02:30:53;;;;;;;57.47;36.60;;;4.60;99.90;;;;;;5063956;28;20185;-70
2024/02/29 02:33:20;;;;;;;54.90;35.77;;;4.60;99.90;;;;;;5063441;28;20476;-69
2024/02/29 02:35:46;;;;;;;50.93;33.97;;;4.70;99.90;;;;;;5063035;28;20483;-69
2024/02/29 02:38:12;;;;;;;47.90;33.53;;;4.60;99.90;;;;;;5063770;28;20416;-69
2024/02/29 02:40:38;;;;;;;51.43;33.47;;;4.60;99.90;;;;;;5063868;28;20557;-68
2024/02/29 02:43:04;;;;;;;56.63;34.83;;;4.60;99.90;;;;;;5063308;28;20412;-68
2024/02/29 02:45:29;;;;;;;45.70;30.07;;;4.60;99.90;;;;;;5063032;28;20217;-69
2024/02/29 02:47:55;;;;;;;47.23;30.83;;;4.60;99.90;;;;;;5063112;28;20704;-69
2024/02/29 02:50:21;;;;;;;54.10;34.63;;;4.50;99.90;;;;;;5063307;28;20178;-71
2024/02/29 02:52:46;;;;;;;50.70;34.50;;;4.50;99.90;;;;;;5062834;28;20205;-72
2024/02/29 02:55:12;;;;;;;46.87;30.93;;;4.50;99.90;;;;;;5063270;28;20236;-69
2024/02/29 02:57:38;;;;;;;46.47;31.43;;;4.60;99.90;;;;;;5062912;28;20884;-70
2024/02/29 03:00:10;;;;;;;55.70;36.43;;;4.50;99.90;;;;;;5062987;28;20178;-69
2024/02/29 03:02:37;;;;;;;46.03;31.30;;;4.40;99.90;;;;;;5063364;28;20227;-70
2024/02/29 03:05:04;;;;;;;49.27;30.83;;;4.40;99.90;;;;;;5045131;28;20497;-70
2024/02/29 03:07:30;;;;;;;52.80;33.33;;;4.40;99.90;;;;;;5063023;28;20485;-69
2024/02/29 03:09:56;;;;;;;48.53;32.93;;;4.40;99.90;;;;;;5044765;28;20428;-70
2024/02/29 03:12:21;;;;;;;53.93;35.30;;;4.50;99.90;;;;;;5063396;28;20600;-69
2024/02/29 03:14:47;;;;;;;48.10;34.63;;;4.50;99.90;;;;;;5062747;28;20236;-70
2024/02/29 03:17:12;;;;;;;50.17;32.00;;;4.50;99.90;;;;;;5062839;28;20687;-69
2024/02/29 03:19:38;;;;;;;53.83;32.93;;;4.40;99.90;;;;;;5062664;28;20655;-70
2024/02/29 03:22:03;;;;;;;48.90;31.27;;;4.50;99.90;;;;;;5062894;28;20245;-70
2024/02/29 03:24:29;;;;;;;62.83;36.03;;;4.40;99.90;;;;;;5062407;28;20463;-69
2024/02/29 03:26:54;;;;;;;51.57;34.27;;;4.30;99.90;;;;;;5062933;28;20196;-69
2024/02/29 03:29:20;;;;;;;57.83;34.27;;;4.30;99.90;;;;;;5044685;28;20190;-70
2024/02/29 03:31:46;;;;;;;54.47;32.80;;;4.20;99.90;;;;;;5062865;28;20242;-69
2024/02/29 03:34:11;;;;;;;44.17;31.30;;;4.20;99.90;;;;;;5062127;28;20582;-69
2024/02/29 03:36:37;;;;;;;54.43;35.70;;;4.10;99.90;;;;;;5062831;28;20189;-70
2024/02/29 03:39:06;;;;;;;54.03;34.30;;;4.10;99.90;;;;;;5065652;28;20181;-70
2024/02/29 03:41:32;;;;;;;54.37;31.33;;;4.10;99.90;;;;;;5067065;28;20544;-70
2024/02/29 03:43:59;;;;;;;58.87;35.27;;;4.10;99.90;;;;;;5066458;28;20439;-70
2024/02/29 03:46:25;;;;;;;49.83;33.50;;;4.00;99.90;;;;;;5066328;28;20174;-70
2024/02/29 03:48:50;;;;;;;55.93;33.63;;;4.10;99.90;;;;;;5066238;28;20914;-70
2024/02/29 03:51:18;;;;;;;61.13;36.33;;;4.00;99.90;;;;;;5065706;28;20457;-71
2024/02/29 03:53:44;;;;;;;54.10;34.30;;;3.90;99.90;;;;;;5065745;28;20189;-70
2024/02/29 03:56:09;;;;;;;51.50;32.10;;;4.00;99.90;;;;;;5065637;28;20463;-69
2024/02/29 03:58:35;;;;;;;56.47;33.37;;;4.10;99.90;;;;;;5066221;28;20424;-70
2024/02/29 04:01:00;;;;;;;51.70;31.17;;;4.10;99.90;;;;;;5066485;28;20770;-70
2024/02/29 04:03:26;;;;;;;50.37;32.97;;;4.10;99.90;;;;;;5047676;28;20178;-71
2024/02/29 04:05:52;;;;;;;46.13;30.73;;;4.10;99.90;;;;;;5065873;28;20284;-70
2024/02/29 04:08:17;;;;;;;54.63;33.47;;;4.10;99.90;;;;;;5065907;28;20220;-69
2024/02/29 04:10:48;;;;;;;50.53;31.93;;;4.00;99.90;;;;;;5066039;28;20828;-68
2024/02/29 04:13:13;;;;;;;57.37;34.30;;;4.10;99.90;;;;;;5065798;28;20612;-70
2024/02/29 04:15:39;;;;;;;45.83;28.57;;;4.10;99.90;;;;;;5065708;28;20468;-67
2024/02/29 04:18:05;;;;;;;44.40;30.13;;;4.10;99.90;;;;;;5065430;28;20499;-70
2024/02/29 04:20:31;;;;;;;52.17;34.20;;;4.10;99.90;;;;;;5065547;28;20662;-69
2024/02/29 04:22:56;;;;;;;50.37;32.50;;;4.10;99.90;;;;;;5065249;28;20181;-70
2024/02/29 04:25:25;;;;;;;56.13;33.70;;;4.10;99.90;;;;;;5065509;28;20644;-70
2024/02/29 04:27:51;;;;;;;52.37;31.00;;;3.90;99.90;;;;;;5065386;28;20180;-70
2024/02/29 04:30:17;;;;;;;46.67;29.50;;;3.90;99.90;;;;;;5065247;28;20416;-69
2024/02/29 04:32:43;;;;;;;56.07;34.70;;;3.90;99.90;;;;;;5065587;28;20456;-70
2024/02/29 04:35:09;;;;;;;47.50;30.97;;;3.90;99.90;;;;;;5065090;28;20459;-69
2024/02/29 04:37:36;;;;;;;59.67;35.23;;;3.80;99.90;;;;;;5065402;28;20411;-70
2024/02/29 04:40:03;;;;;;;55.53;32.23;;;3.80;99.90;;;;;;5065127;28;20895;-70
2024/02/29 04:42:29;;;;;;;46.73;30.50;;;3.90;99.90;;;;;;5065331;28;20419;-70
2024/02/29 04:44:55;;;;;;;43.60;30.13;;;3.90;99.90;;;;;;5065492;28;20497;-70
2024/02/29 04:47:20;;;;;;;52.60;31.87;;;4.00;99.90;;;;;;5065273;28;20442;-70
2024/02/29 04:49:46;;;;;;;47.87;32.13;;;4.00;99.90;;;;;;5064467;28;20186;-70
2024/02/29 04:52:11;;;;;;;54.57;33.90;;;3.90;99.90;;;;;;5065146;28;20202;-68
2024/02/29 04:54:37;;;;;;;48.60;30.07;;;3.90;99.90;;;;;;5064905;28;20586;-70
2024/02/29 04:57:03;;;;;;;50.20;32.27;;;3.90;99.90;;;;;;5065186;28;20185;-70
2024/02/29 04:59:29;;;;;;;57.43;34.23;;;4.00;99.90;;;;;;5065307;28;20457;-70
2024/02/29 05:01:55;;;;;;;56.13;36.13;;;3.80;99.90;;;;;;5064972;28;20956;-69
2024/02/29 05:04:20;;;;;;;54.93;35.90;;;3.70;99.90;;;;;;5065372;28;20432;-69
2024/02/29 05:06:46;;;;;;;59.87;34.30;;;3.70;99.90;;;;;;5065415;28;20174;-69
2024/02/29 05:09:11;;;;;;;57.77;34.83;;;3.70;99.90;;;;;;5064940;28;20178;-69
2024/02/29 05:11:37;;;;;;;57.13;36.63;;;3.70;99.90;;;;;;5065009;28;20257;-69
2024/02/29 05:14:05;;;;;;;53.77;34.17;;;3.80;99.90;;;;;;5064682;28;20416;-69
2024/02/29 05:16:30;;;;;;;51.03;33.70;;;3.80;99.90;;;;;;5065112;28;20231;-70
2024/02/29 05:18:56;;;;;;;50.00;32.70;;;3.80;99.90;;;;;;5047073;28;20780;-69
2024/02/29 05:21:22;;;;;;;48.90;31.87;;;3.80;99.90;;;;;;5097501;22;20276;-73
2024/02/29 05:23:48;;;;;;;58.90;37.80;;;3.80;99.90;;;;;;5114550;28;20165;-73
2024/02/29 05:26:13;;;;;;;61.53;37.87;;;3.80;99.90;;;;;;5112808;28;20499;-72
2024/02/29 05:28:39;;;;;;;59.80;36.17;;;3.70;99.90;;;;;;5114476;28;20202;-73
2024/02/29 05:31:05;;;;;;;59.50;36.13;;;3.50;99.90;;;;;;5114285;28;20172;-73
2024/02/29 05:33:30;;;;;;;57.43;35.80;;;3.40;99.90;;;;;;5108757;28;20275;-73
2024/02/29 05:35:56;;;;;;;53.87;34.00;;;3.40;99.90;;;;;;5114178;28;20243;-73
2024/02/29 05:38:21;;;;;;;51.67;32.23;;;3.30;99.90;;;;;;5114023;28;20237;-73
2024/02/29 05:40:47;;;;;;;50.63;31.90;;;3.40;99.90;;;;;;5109927;28;20703;-73
2024/02/29 05:43:14;;;;;;;55.20;35.27;;;3.40;99.90;;;;;;5095415;28;20209;-73
2024/02/29 05:45:40;;;;;;;50.40;33.23;;;3.50;99.90;;;;;;5098766;28;20162;-74
2024/02/29 05:48:06;;;;;;;43.73;29.00;;;3.60;99.90;;;;;;5100389;28;20404;-74
2024/02/29 05:50:32;;;;;;;49.80;33.40;;;3.60;99.90;;;;;;5096974;28;20548;-73
2024/02/29 05:52:58;;;;;;;52.63;34.97;;;3.60;99.90;;;;;;5114677;28;20452;-74
2024/02/29 05:55:24;;;;;;;45.50;29.83;;;3.70;99.90;;;;;;5113868;28;20156;-72
2024/02/29 05:57:50;;;;;;;51.63;32.60;;;3.70;99.90;;;;;;5113676;28;20865;-73
2024/02/29 06:00:17;;;;;;;44.30;30.53;;;3.80;99.90;;;;;;5113723;28;20398;-73
2024/02/29 06:02:43;;;;;;;44.67;30.77;;;3.80;99.90;;;;;;5093269;28;20283;-73
2024/02/29 06:05:09;;;;;;;57.13;34.00;;;3.80;99.90;;;;;;5093567;28;20946;-73
2024/02/29 06:07:36;;;;;;;49.67;32.97;;;3.80;99.90;;;;;;5093421;28;20407;-73
2024/02/29 06:10:02;;;;;;;56.97;36.03;;;3.70;99.90;;;;;;5093136;28;20548;-72
2024/02/29 06:12:30;;;;;;;48.70;32.53;;;3.70;99.90;;;;;;5110728;28;20450;-73
2024/02/29 06:14:55;;;;;;;59.23;34.47;;;3.70;99.90;;;;;;5113064;28;20490;-73
2024/02/29 06:17:21;;;;;;;60.90;36.03;;;3.70;99.90;;;;;;5113614;28;20430;-73
2024/02/29 06:19:46;;;;;;;52.60;36.00;;;3.70;99.90;;;;;;5113262;28;20229;-73
2024/02/29 06:22:12;;;;;;;45.30;29.80;;;3.80;99.90;;;;;;5112933;28;20273;-73
2024/02/29 06:24:38;;;;;;;53.67;36.03;;;3.80;99.90;;;;;;5113583;28;20160;-73
2024/02/29 06:27:03;;;;;;;55.03;35.17;;;3.80;99.90;;;;;;5113338;28;20164;-73
2024/02/29 06:29:29;;;;;;;49.63;32.73;;;3.80;99.90;;;;;;5112666;28;20588;-73
2024/02/29 06:31:54;;;;;;;49.13;31.40;;;3.90;99.90;;;;;;5112074;28;20196;-73
2024/02/29 06:34:20;;;;;;;47.37;31.17;;;3.80;99.90;;;;;;5113197;28;20229;-74
2024/02/29 06:36:45;;;;;;;48.60;30.77;;;3.90;99.90;;;;;;5113046;28;20161;-74
2024/02/29 06:39:11;;;;;;;48.33;31.70;;;3.90;99.90;;;;;;5113453;28;20165;-73
2024/02/29 06:41:38;;;;;;;41.23;29.33;;;4.00;99.90;;;;;;5112929;28;20195;-72
2024/02/29 06:44:06;;;;;;;43.80;30.30;;;4.10;99.90;;;;;;5112870;28;20251;-73
2024/02/29 06:46:32;;;;;;;54.50;33.10;;;4.10;99.90;;;;;;5113032;28;20420;-72
2024/02/29 06:48:58;;;;;;;48.97;31.97;;;4.20;99.90;;;;;;5113418;28;20774;-73
2024/02/29 06:51:23;;;;;;;52.43;33.80;;;4.20;99.90;;;;;;5104750;28;20486;-74
2024/02/29 06:53:49;;;;;;;53.47;35.13;;;4.20;99.90;;;;;;5093593;28;20439;-74
2024/02/29 06:56:14;;;;;;;50.13;31.97;;;4.20;99.90;;;;;;5092594;28;20166;-73
2024/02/29 06:58:42;;;;;;;47.00;32.10;;;4.30;99.90;;;;;;5092882;28;20165;-73
2024/02/29 07:01:08;;;;;;;51.50;32.50;;;4.30;99.90;;;;;;5098971;28;20156;-73
2024/02/29 07:03:33;;;;;;;47.20;32.13;;;4.40;99.90;;;;;;5113292;28;20409;-73
2024/02/29 07:05:59;;;;;;;49.17;33.13;;;4.40;99.90;;;;;;5113449;28;20248;-73
2024/02/29 07:08:24;;;;;;;46.30;32.40;;;4.50;99.90;;;;;;5113038;28;20183;-72
2024/02/29 07:10:50;;;;;;;47.43;29.63;;;4.50;99.90;;;;;;5109723;28;20658;-74
2024/02/29 07:13:16;;;;;;;42.67;30.50;;;4.60;99.90;;;;;;5094813;28;20189;-74
2024/02/29 07:15:41;;;;;;;43.77;30.60;;;4.70;99.90;;;;;;5097728;28;20591;-74
2024/02/29 07:18:08;;;;;;;52.77;34.10;;;4.70;99.90;;;;;;5096841;28;20180;-73
2024/02/29 07:20:33;;;;;;;46.07;31.53;;;4.80;99.90;;;;;;5096941;28;20636;-73
2024/02/29 07:23:03;;;;;;;48.93;33.83;;;4.90;99.90;;;;;;5117973;28;20529;-73
2024/02/29 07:25:29;;;;;;;61.23;36.40;;;5.00;99.90;;;;;;5117486;28;20248;-73
2024/02/29 07:27:57;;;;;;;48.03;33.30;;;5.10;99.90;;;;;;5116471;28;20446;-74
2024/02/29 07:30:23;;;;;;;48.80;33.87;;;5.10;99.90;;;;;;5115141;28;20165;-74
2024/02/29 07:32:48;;;;;;;40.40;29.63;;;5.10;99.90;;;;;;5096951;28;20454;-73
2024/02/29 07:35:17;;;;;;;42.37;29.63;;;5.20;99.90;;;;;;5096294;28;20172;-73
2024/02/29 07:37:44;;;;;;;39.90;28.80;;;5.30;99.90;;;;;;5094621;28;20231;-72
2024/02/29 07:40:09;;;;;;;46.23;32.47;;;5.40;99.90;;;;;;5115149;28;20407;-73
2024/02/29 07:42:37;;;;;;;52.67;34.20;;;5.20;99.90;;;;;;5102069;28;20855;-72
2024/02/29 07:45:05;;;;;;;54.47;35.53;;;5.20;99.90;;;;;;5116831;28;20543;-73
2024/02/29 07:47:30;;;;;;;51.13;34.87;;;5.30;99.90;;;;;;5119432;28;20421;-73
2024/02/29 07:49:56;;;;;;;50.30;34.20;;;5.20;99.90;;;;;;5116722;28;20394;-75
2024/02/29 07:52:22;;;;;;;48.80;31.57;;;5.40;99.90;;;;;;5100178;28;20193;-75
2024/02/29 07:54:48;;;;;;;50.23;36.23;;;5.50;99.90;;;;;;5095467;28;20712;-73
2024/02/29 07:57:13;;;;;;;46.80;33.73;;;5.60;99.90;;;;;;5100120;28;20716;-71
2024/02/29 07:59:39;;;;;;;45.30;33.27;;;5.70;99.90;;;;;;5115984;28;20398;-74
2024/02/29 08:02:05;;;;;;;46.83;33.23;;;5.90;99.90;;;;;;5103042;28;20679;-74
2024/02/29 08:04:30;;;;;;;48.03;34.60;;;6.00;99.90;;;;;;5093128;28;20404;-75
2024/02/29 08:06:56;;;;;;;43.23;32.40;;;6.30;99.90;;;;;;5095526;28;20197;-73
2024/02/29 08:09:24;;;;;;;45.70;31.90;;;6.20;99.90;;;;;;5095669;28;20167;-73
2024/02/29 08:11:49;;;;;;;43.53;31.50;;;6.30;99.90;;;;;;5106019;28;20186;-73
2024/02/29 08:14:15;;;;;;;41.03;29.30;;;6.30;99.90;;;;;;5116205;28;20415;-74
2024/02/29 08:16:40;;;;;;;49.20;32.60;;;6.30;99.90;;;;;;5115670;28;20168;-72
2024/02/29 08:19:06;;;;;;;44.40;32.37;;;6.20;99.90;;;;;;5115777;28;20165;-74
2024/02/29 08:21:32;;;;;;;39.30;29.30;;;6.30;99.90;;;;;;5113939;28;20672;-77
2024/02/29 08:23:58;;;;;;;44.47;32.20;;;6.50;99.90;;;;;;5114270;28;20444;-73
2024/02/29 08:26:24;;;;;;;42.67;30.83;;;6.70;99.90;;;;;;5116166;28;20403;-75
2024/02/29 08:28:50;;;;;;;39.73;29.77;;;6.60;99.90;;;;;;5115828;28;20867;-75
2024/02/29 08:31:16;;;;;;;37.10;27.23;;;6.60;99.90;;;;;;5109978;28;20209;-75
2024/02/29 08:33:41;;;;;;;38.17;28.37;;;6.70;99.90;;;;;;5094858;28;20237;-75
2024/02/29 08:36:07;;;;;;;45.50;32.43;;;7.00;99.90;;;;;;5094997;28;20175;-74
2024/02/29 08:38:36;;;;;;;41.13;27.83;;;7.00;99.90;;;;;;5094801;28;20168;-74
2024/02/29 08:41:04;;;;;;;43.83;33.05;;;6.90;99.90;;;;;;5095817;28;20407;-72
2024/02/29 08:43:30;;;;;;;39.43;29.10;;;7.20;99.90;;;;;;5115233;28;20169;-73
2024/02/29 08:45:55;;;;;;;41.47;29.40;;;7.30;99.90;;;;;;5115502;28;20416;-72
2024/02/29 08:48:21;;;;;;;39.93;27.57;;;7.40;99.90;;;;;;5115587;28;20817;-72
2024/02/29 08:50:47;;;;;;;36.37;26.40;;;7.20;99.90;;;;;;5114236;28;20159;-72
2024/02/29 08:53:13;;;;;;;37.13;28.40;;;7.30;99.90;;;;;;5093233;28;20250;-72
2024/02/29 08:55:38;;;;;;;41.80;31.60;;;7.30;99.90;;;;;;5094630;28;20621;-73
2024/02/29 08:58:04;;;;;;;36.93;27.67;;;7.30;99.90;;;;;;5094747;28;20411;-74
2024/02/29 09:00:30;;;;;;;40.77;29.00;;;7.20;99.90;;;;;;5094672;28;20176;-73
2024/02/29 09:02:56;;;;;;;40.87;29.60;;;7.10;99.90;;;;;;5111866;28;20196;-75
2024/02/29 09:05:22;;;;;;;39.27;29.27;;;7.30;99.90;;;;;;5114924;28;20175;-73
2024/02/29 09:07:48;;;;;;;42.47;29.30;;;7.40;99.90;;;;;;5114737;28;20405;-75
2024/02/29 09:10:13;;;;;;;36.60;27.30;;;7.40;99.90;;;;;;5114620;28;20199;-74
2024/02/29 09:12:39;;;;;;;38.10;28.23;;;7.70;99.90;;;;;;5097851;28;20258;-74
2024/02/29 09:15:05;;;;;;;39.80;28.67;;;7.80;99.90;;;;;;5094250;28;20165;-74
2024/02/29 09:17:31;;;;;;;37.03;28.20;;;8.00;99.90;;;;;;5092745;28;20174;-72
2024/02/29 09:19:56;;;;;;;36.60;26.83;;;8.20;99.90;;;;;;5094198;28;20397;-73
2024/02/29 09:22:22;;;;;;;34.93;27.00;;;8.00;99.90;;;;;;5106528;28;20208;-72
2024/02/29 09:24:47;;;;;;;35.37;26.07;;;7.90;99.90;;;;;;5114332;28;20191;-71
2024/02/29 09:27:13;;;;;;;39.23;27.90;;;8.20;99.90;;;;;;5114137;28;20579;-73
2024/02/29 09:29:39;;;;;;;36.57;27.27;;;8.30;99.90;;;;;;5113195;28;20178;-73
2024/02/29 09:32:05;;;;;;;33.57;27.67;;;8.20;99.90;;;;;;5104298;28;20436;-74
2024/02/29 09:34:31;;;;;;;38.77;28.60;;;8.10;99.90;;;;;;5114385;28;20172;-72
2024/02/29 09:36:56;;;;;;;33.50;26.03;;;7.90;99.90;;;;;;5113534;28;20180;-73
2024/02/29 09:39:22;;;;;;;33.37;25.40;;;7.70;99.90;;;;;;5111137;28;20402;-73
2024/02/29 09:41:48;;;;;;;33.70;25.67;;;7.70;99.90;;;;;;5105113;28;20275;-74
2024/02/29 09:44:15;;;;;;;38.27;26.50;;;7.90;99.90;;;;;;5093626;28;20167;-73
2024/02/29 09:46:46;;;;;;;36.07;28.80;;;8.40;99.90;;;;;;5094052;28;20165;-76
2024/02/29 09:49:12;;;;;;;37.13;28.23;;;8.70;99.90;;;;;;5092435;28;20409;-75
2024/02/29 09:51:40;;;;;;;36.27;27.00;;;8.70;99.90;;;;;;5101132;28;20512;-74
2024/02/29 09:54:09;;;;;;;35.33;27.60;;;9.10;99.90;;;;;;5113186;28;20438;-74
2024/02/29 09:56:34;;;;;;;35.50;27.13;;;9.00;99.90;;;;;;5112270;28;20440;-73
2024/02/29 09:59:01;;;;;;;33.63;25.50;;;8.90;99.90;;;;;;5113987;28;20402;-74
2024/02/29 10:01:29;;;;;;;37.33;28.57;;;9.20;99.90;;;;;;5107816;28;20191;-74
2024/02/29 10:03:56;;;;;;;36.28;27.50;;;9.20;99.90;;;;;;5093007;28;20416;-74
2024/02/29 10:06:22;;;;;;;34.90;26.97;;;9.40;99.90;;;;;;5093511;28;20162;-73
2024/02/29 10:08:48;;;;;;;38.17;26.23;;;9.50;99.90;;;;;;5093336;28;20411;-72
2024/02/29 10:11:14;;;;;;;38.83;29.27;;;9.60;99.90;;;;;;5097027;28;20424;-75
2024/02/29 10:13:41;;;;;;;33.97;25.70;;;9.70;99.90;;;;;;5113748;28;20563;-75
2024/02/29 10:16:13;;;;;;;36.80;27.43;;;9.80;99.90;;;;;;5113839;28;20446;-73
2024/02/29 10:18:39;;;;;;;37.67;26.67;;;10.10;99.90;;;;;;5113815;27;20379;-74
2024/02/29 10:21:12;;;;;;;37.00;26.57;;;10.30;99.90;;;;;;5113370;28;20405;-74
2024/02/29 10:23:42;;;;;;;36.33;27.27;;;10.20;99.90;;;;;;5113770;28;20162;-73
2024/02/29 10:26:08;;;;;;;32.70;25.47;;;10.00;99.90;;;;;;5112561;28;20488;-73
2024/02/29 10:28:34;;;;;;;29.73;24.73;;;9.80;99.90;;;;;;5114042;28;20504;-73
2024/02/29 10:31:01;;;;;;;34.20;26.10;;;9.60;99.90;;;;;;5111803;28;20939;-72
2024/02/29 10:33:29;;;;;;;38.87;27.83;;;9.60;99.90;;;;;;5092956;28;20570;-74
2024/02/29 10:35:56;;;;;;;32.80;25.40;;;9.70;99.90;;;;;;5093295;28;20408;-73
2024/02/29 10:38:22;;;;;;;33.90;26.33;;;10.10;99.90;;;;;;5093112;28;20406;-72
2024/02/29 10:40:52;;;;;;;30.67;25.00;;;10.10;99.90;;;;;;5093132;28;20403;-74
2024/02/29 10:43:22;;;;;;;33.73;26.60;;;10.00;99.90;;;;;;5093047;28;20225;-74
2024/02/29 10:45:50;;;;;;;34.20;25.57;;;9.90;99.90;;;;;;5092789;28;20412;-73
2024/02/29 10:48:29;;;;;;;34.33;28.00;;;9.90;99.90;;;;;;5092007;28;20417;-72
2024/02/29 10:51:12;;;;;;;31.33;24.13;;;10.30;99.90;;;;;;5093241;28;20384;-73
2024/02/29 10:54:06;;;;;;;35.40;25.60;;;10.20;99.90;;;;;;5113235;28;20434;-75
2024/02/29 10:56:33;;;;;;;34.80;25.17;;;10.20;99.90;;;;;;5113260;28;20398;-74
2024/02/29 10:59:04;;;;;;;33.80;24.50;;;10.50;99.90;;;;;;5113121;28;20390;-73
2024/02/29 11:01:33;;;;;;;36.53;25.83;;;10.80;99.90;;;;;;5112703;28;20421;-73
2024/02/29 11:03:59;;;;;;;33.77;25.67;;;11.00;99.90;;;;;;5112970;28;20940;-73
2024/02/29 11:06:27;;;;;;;29.50;24.37;;;11.00;99.90;;;;;;5113192;28;20498;-75
2024/02/29 11:08:54;;;;;;;31.97;25.17;;;11.20;99.90;;;;;;5113095;28;20557;-73
2024/02/29 11:11:21;;;;;;;32.57;25.57;;;11.40;99.90;;;;;;5109295;28;20426;-74
2024/02/29 11:13:47;;;;;;;32.77;25.13;;;11.50;99.90;;;;;;5092502;28;20841;-75
2024/02/29 11:16:14;;;;;;;31.47;24.50;;;11.90;99.90;;;;;;5092384;28;20404;-72
2024/02/29 11:18:42;;;;;;;33.37;26.13;;;12.00;99.90;;;;;;5092398;28;20193;-73
2024/02/29 11:21:07;;;;;;;35.27;24.70;;;12.10;99.90;;;;;;5094244;28;20493;-73
2024/02/29 11:23:35;;;;;;;32.57;24.23;;;;;;;;;;5103030;22;20490;-71
2024/02/29 11:26:01;;;;;;;26.50;20.43;;;;;;;;;;5073853;28;20172;-71
2024/02/29 11:28:32;;;;;;;25.77;19.73;;;;;;;;;;5073354;28;20390;-71
2024/02/29 11:31:07;;;;;;;23.97;19.40;;;;;;;;;;5073589;28;20388;-71
2024/02/29 11:33:33;;;;;;;25.17;20.33;;;;;;;;;;5072647;28;20961;-70
2024/02/29 11:36:00;;;;;;;22.73;19.87;;;;;;;;;;5072292;28;20454;-71
2024/02/29 11:38:26;;;;;;;23.20;18.17;;;;;;;;;;5072208;28;20400;-70
2024/02/29 11:40:52;;;;;;;23.70;18.63;;;;;;;;;;5072015;28;20487;-70
2024/02/29 11:43:19;;;;;;;25.10;19.67;;;;;;;;;;5071997;28;20565;-71
2024/02/29 11:45:45;;;;;;;20.50;17.30;;;;;;;;;;5072065;28;21014;-70
2024/02/29 11:48:11;;;;;;;20.00;17.17;;;;;;;;;;5072528;28;20403;-71
2024/02/29 11:50:37;;;;;;;23.77;19.80;;;;;;;;;;5071585;28;20432;-71
2024/02/29 11:53:04;;;;;;;21.83;18.60;;;;;;;;;;5071813;28;20448;-71
2024/02/29 11:55:30;;;;;;;19.83;17.10;;;;;;;;;;5072014;28;20401;-71
2024/02/29 11:57:57;;;;;;;17.97;16.13;;;;;;;;;;5072396;28;20404;-69
2024/02/29 12:00:26;;;;;;;20.17;18.03;;;;;;;;;;5075818;28;20827;-70
2024/02/29 12:02:53;;;;;;;19.80;16.93;;;;;;;;;;5075350;28;20469;-70
2024/02/29 12:05:19;;;;;;;20.97;18.67;;;;;;;;;;5076022;28;20404;-70
2024/02/29 12:07:46;;;;;;;21.20;18.47;;;;;;;;;;5075745;28;20404;-70
2024/02/29 12:10:13;;;;;;;20.97;18.07;;;;;;;;;;5075904;28;20529;-72
2024/02/29 12:12:39;;;;;;;19.40;17.30;;;;;;;;;;5075640;28;20447;-71
2024/02/29 12:15:07;;;;;;;19.63;17.43;;;;;;;;;;5075703;28;20537;-71
2024/02/29 12:17:33;;;;;;;24.17;18.40;;;;;;;;;;5074196;28;20451;-71
2024/02/29 12:19:59;;;;;;;20.67;17.43;;;;;;;;;;5075446;28;20954;-71
2024/02/29 12:22:25;;;;;;;18.03;15.73;;;;;;;;;;5074909;28;20954;-72
2024/02/29 12:24:51;;;;;;;17.10;13.40;;;;;;;;;;5075639;28;20408;-73
2024/02/29 12:27:18;;;;;;;16.87;14.73;;;;;;;;;;5075269;28;20407;-72
2024/02/29 12:29:44;;;;;;;15.90;14.30;;;;;;;;;;5075330;28;20405;-74
2024/02/29 12:32:11;;;;;;;18.17;15.50;;;;;;;;;;5062840;28;20432;-70
2024/02/29 12:34:37;;;;;;;16.47;13.60;;;;;;;;;;5075332;28;20401;-71
2024/02/29 12:37:03;;;;;;;15.10;13.50;;;;;;;;;;5075200;28;20768;-72
2024/02/29 12:39:29;;;;;;;14.53;13.03;;;;;;;;;;5075130;28;20397;-73